Time;durP1;ratioP1;P1;durP2;ratioP2;P2;SDS_P1;SDS_P2;PMS_P1;PMS_P2;Temp;Humidity;BMP_temperature;BMP_pressure;BME280_temperature;BME280_humidity;BME280_pressure;Samples;Min_cycle;Max_cycle;Signal;HPM_P1;HPM_P2
2021/03/09 00:00:10;;;;;;;5.03;1.48;;;;;;;-3.00;69.28;101443.25;4982421;28;20077;-48
2021/03/09 00:02:36;;;;;;;5.05;1.80;;;;;;;-3.08;69.05;101452.56;4981167;28;20049;-51
2021/03/09 00:05:04;;;;;;;4.93;2.47;;;;;;;-3.04;69.32;101443.72;4981963;28;20052;-47
2021/03/09 00:07:31;;;;;;;7.97;2.35;;;;;;;-2.97;69.04;101447.63;4981931;28;20501;-49
2021/03/09 00:09:58;;;;;;;5.25;2.38;;;;;;;-2.84;68.62;101448.91;4980752;28;20066;-48
2021/03/09 00:12:24;;;;;;;4.00;2.03;;;;;;;-2.82;67.89;101449.03;4979222;28;20053;-49
2021/03/09 00:14:51;;;;;;;4.88;2.03;;;;;;;-2.77;68.01;101445.34;4979586;28;20505;-53
2021/03/09 00:17:30;;;;;;;4.60;2.00;;;;;;;-2.89;68.48;101446.72;4979741;28;20050;-51
2021/03/09 00:19:57;;;;;;;4.45;2.38;;;;;;;-2.90;68.83;101440.84;4980398;28;20051;-52
2021/03/09 00:22:23;;;;;;;5.65;1.83;;;;;;;-2.86;69.58;101444.50;4978693;28;20046;-49
2021/03/09 00:24:50;;;;;;;4.57;1.95;;;;;;;-2.85;70.50;101439.63;4980070;28;20051;-48
2021/03/09 00:27:16;;;;;;;4.55;2.25;;;;;;;-2.93;70.96;101444.69;4981461;28;20355;-47
2021/03/09 00:29:43;;;;;;;4.32;2.38;;;;;;;-2.79;70.54;101440.91;4980015;28;20053;-47
2021/03/09 00:32:10;;;;;;;6.32;2.15;;;;;;;-2.89;70.33;101449.22;4979547;28;20058;-50
2021/03/09 00:34:37;;;;;;;4.57;2.25;;;;;;;-2.87;70.21;101447.72;4980854;28;20042;-48
2021/03/09 00:37:04;;;;;;;6.63;2.20;;;;;;;-3.05;70.28;101448.56;4981159;28;20050;-46
2021/03/09 00:39:31;;;;;;;7.90;2.95;;;;;;;-3.01;71.22;101446.47;4981725;28;20046;-48
2021/03/09 00:41:58;;;;;;;9.40;2.50;;;;;;;-3.03;71.11;101447.97;4979775;28;20057;-51
2021/03/09 00:44:25;;;;;;;7.60;2.90;;;;;;;-2.99;71.72;101444.13;4979190;28;20054;-52
2021/03/09 00:46:52;;;;;;;6.85;2.20;;;;;;;-3.04;71.84;101437.81;4979681;28;20046;-52
2021/03/09 00:49:19;;;;;;;6.05;2.47;;;;;;;-3.06;72.03;101440.16;4981570;28;20504;-50
2021/03/09 00:51:46;;;;;;;5.18;2.47;;;;;;;-3.07;72.53;101449.31;4979418;28;20500;-50
2021/03/09 00:54:12;;;;;;;7.22;2.40;;;;;;;-3.08;71.56;101449.19;4979847;28;20046;-49
2021/03/09 00:56:39;;;;;;;5.55;2.67;;;;;;;-3.09;71.93;101430.75;4980249;28;20050;-53
2021/03/09 00:59:05;;;;;;;5.68;2.60;;;;;;;-2.92;72.79;101433.91;4980977;28;20503;-49
2021/03/09 01:01:32;;;;;;;4.72;2.50;;;;;;;-3.10;72.89;101425.59;4981389;28;20046;-46
2021/03/09 01:03:59;;;;;;;4.97;2.55;;;;;;;-2.98;71.26;101419.19;4980166;28;20577;-48
2021/03/09 01:06:25;;;;;;;6.22;2.72;;;;;;;-3.00;72.86;101420.69;4981098;28;20429;-50
2021/03/09 01:08:52;;;;;;;3.13;1.90;;;;;;;-2.98;70.68;101415.81;4979129;28;20465;-48
2021/03/09 01:11:19;;;;;;;6.55;2.80;;;;;;;-3.10;71.93;101418.97;4981325;28;20046;-53
2021/03/09 01:13:45;;;;;;;6.07;2.67;;;;;;;-3.11;71.18;101413.81;4978946;28;20054;-49
2021/03/09 01:16:12;;;;;;;5.70;2.97;;;;;;;-3.11;70.95;101414.69;4980822;28;20054;-50
2021/03/09 01:18:38;;;;;;;4.43;2.55;;;;;;;-3.18;71.07;101404.00;4979869;28;20148;-48
2021/03/09 01:21:05;;;;;;;4.97;2.58;;;;;;;-3.01;71.38;101403.00;4980761;28;20050;-48
2021/03/09 01:23:32;;;;;;;4.70;2.78;;;;;;;-3.18;71.74;101407.38;4981388;28;20050;-48
2021/03/09 01:25:59;;;;;;;5.50;2.67;;;;;;;-3.31;71.14;101409.50;4979139;28;20043;-50
2021/03/09 01:28:25;;;;;;;8.27;2.90;;;;;;;-3.11;71.41;101403.78;4981194;28;20054;-50
2021/03/09 01:30:52;;;;;;;6.75;2.65;;;;;;;-3.29;71.42;101395.47;4978870;28;20069;-47
2021/03/09 01:33:19;;;;;;;8.35;3.03;;;;;;;-3.28;71.49;101393.84;4981070;28;20061;-53
2021/03/09 01:35:46;;;;;;;5.78;3.10;;;;;;;-3.09;71.48;101397.31;4976416;28;20070;-54
2021/03/09 01:38:13;;;;;;;5.50;2.58;;;;;;;-3.23;71.41;101393.56;4979383;28;20050;-52
2021/03/09 01:40:40;;;;;;;5.60;2.40;;;;;;;-3.31;70.74;101388.56;4981313;28;20061;-47
2021/03/09 01:43:07;;;;;;;5.65;2.47;;;;;;;-3.36;70.16;101395.66;4980560;28;20058;-47
2021/03/09 01:45:39;;;;;;;6.03;2.40;;;;;;;-3.20;70.41;101392.94;4980249;28;20575;-50
2021/03/09 01:48:06;;;;;;;5.57;2.65;;;;;;;-3.29;70.23;101390.47;4980466;28;20101;-54
2021/03/09 01:50:35;;;;;;;9.90;2.97;;;;;;;-2.96;69.44;101384.25;4981769;28;20046;-46
2021/03/09 01:53:07;;;;;;;4.30;2.45;;;;;;;-3.33;71.02;101376.81;4979793;28;20064;-46
2021/03/09 01:55:35;;;;;;;7.70;2.95;;;;;;;-3.41;71.27;101377.72;4979690;28;20492;-50
2021/03/09 01:58:10;;;;;;;7.05;2.75;;;;;;;-3.47;71.65;101366.25;4979894;28;20043;-47
2021/03/09 02:00:40;;;;;;;6.00;2.73;;;;;;;-3.25;71.53;101369.09;4979266;28;20374;-48
2021/03/09 02:03:07;;;;;;;9.13;2.78;;;;;;;-3.37;71.91;101371.38;4979723;28;20288;-51
2021/03/09 02:05:34;;;;;;;5.68;2.80;;;;;;;-3.44;71.60;101364.91;4980045;28;20058;-49
2021/03/09 02:08:01;;;;;;;7.53;3.35;;;;;;;-3.58;72.90;101370.28;4979683;28;20046;-50
2021/03/09 02:10:28;;;;;;;6.50;2.65;;;;;;;-3.49;72.69;101362.72;4980275;28;20061;-48
2021/03/09 02:13:07;;;;;;;6.68;3.13;;;;;;;-3.51;71.85;101365.09;4978011;28;20062;-50
2021/03/09 02:15:42;;;;;;;7.38;2.78;;;;;;;-3.49;72.30;101362.72;4978736;28;20046;-46
2021/03/09 02:18:21;;;;;;;9.10;3.03;;;;;;;-3.58;73.02;101367.75;4979456;28;20043;-48
2021/03/09 02:21:03;;;;;;;5.28;2.78;;;;;;;-3.33;72.17;101366.78;4978341;28;20571;-46
2021/03/09 02:23:57;;;;;;;6.75;3.30;;;;;;;-3.51;72.20;101364.19;4978685;28;20262;-49
2021/03/09 02:26:36;;;;;;;9.70;3.13;;;;;;;-3.46;72.91;101361.41;4977923;28;20069;-46
2021/03/09 02:29:40;;;;;;;6.10;2.72;;;;;;;-3.61;72.91;101358.34;4979514;28;20046;-52
2021/03/09 02:32:12;;;;;;;6.50;3.60;;;;;;;-3.73;73.25;101362.22;4979528;28;20046;-46
2021/03/09 02:34:50;;;;;;;7.30;3.67;;;;;;;-3.69;73.07;101368.41;4978613;28;20145;-47
2021/03/09 02:37:17;;;;;;;9.85;3.50;;;;;;;-3.72;73.12;101366.47;4974650;28;20046;-45
2021/03/09 02:39:48;;;;;;;6.78;3.25;;;;;;;-3.65;72.40;101358.81;4978109;28;20046;-48
2021/03/09 02:42:22;;;;;;;7.65;3.08;;;;;;;-3.73;72.58;101357.22;4980059;28;20038;-46
2021/03/09 02:44:53;;;;;;;7.03;3.20;;;;;;;-3.76;73.31;101354.44;4975692;28;20054;-45
2021/03/09 02:47:21;;;;;;;7.68;3.47;;;;;;;-3.82;73.51;101346.34;4980084;28;20046;-49
2021/03/09 02:49:53;;;;;;;7.38;3.50;;;;;;;-3.72;73.20;101355.59;4978005;28;20077;-47
2021/03/09 02:52:22;;;;;;;6.20;3.13;;;;;;;-3.56;72.75;101345.38;4979951;28;20046;-50
2021/03/09 02:54:51;;;;;;;9.43;3.05;;;;;;;-3.71;72.46;101349.84;4978318;28;20050;-50
2021/03/09 02:57:19;;;;;;;5.43;3.05;;;;;;;-3.80;73.31;101346.50;4977511;28;20054;-50
2021/03/09 02:59:47;;;;;;;10.85;3.60;;;;;;;-3.81;73.33;101347.22;4977990;28;20156;-47
2021/03/09 03:02:18;;;;;;;6.82;3.38;;;;;;;-3.81;72.89;101352.25;4979952;28;20054;-48
2021/03/09 03:04:48;;;;;;;7.47;3.20;;;;;;;-3.90;73.14;101353.13;4978202;28;20134;-45
2021/03/09 03:07:16;;;;;;;6.82;3.63;;;;;;;-3.91;72.84;101348.00;4979979;28;20056;-46
2021/03/09 03:09:43;;;;;;;6.07;3.42;;;;;;;-3.97;73.24;101345.81;4977728;28;20062;-48
2021/03/09 03:12:13;;;;;;;9.73;3.92;;;;;;;-3.99;74.00;101341.41;4977168;28;20089;-51
2021/03/09 03:14:45;;;;;;;7.60;3.38;;;;;;;-4.00;74.15;101339.63;4978055;28;20058;-49
2021/03/09 03:17:14;;;;;;;6.05;3.25;;;;;;;-3.78;73.15;101335.03;4980121;28;20053;-45
2021/03/09 03:19:48;;;;;;;;;;;;;;;-3.94;73.13;101333.56;4978829;28;20050;-49
2021/03/09 03:22:17;;;;;;;9.90;3.80;;;;;;;-3.91;73.68;101336.38;4975736;28;19932;-48
2021/03/09 03:24:46;;;;;;;9.63;3.90;;;;;;;-3.81;73.63;101340.59;4978437;28;20061;-52
2021/03/09 03:27:21;;;;;;;8.55;3.15;;;;;;;-3.89;73.79;101332.38;4975553;28;20056;-51
2021/03/09 03:29:49;;;;;;;9.38;4.18;;;;;;;-3.90;72.83;101334.75;4977749;28;20046;-52
2021/03/09 03:32:16;;;;;;;10.18;4.15;;;;;;;-4.02;74.05;101327.00;4979550;28;20038;-51
2021/03/09 03:34:44;;;;;;;8.27;4.18;;;;;;;-3.96;73.99;101331.69;4977420;28;20042;-48
2021/03/09 03:37:14;;;;;;;10.73;3.92;;;;;;;-4.01;74.73;101332.88;4982335;28;20407;-49
2021/03/09 03:39:41;;;;;;;7.30;3.75;;;;;;;-4.02;74.62;101333.59;4978794;28;20042;-54
2021/03/09 03:42:08;;;;;;;7.38;3.70;;;;;;;-4.09;74.92;101332.16;4974934;28;20587;-48
2021/03/09 03:44:35;;;;;;;8.40;4.00;;;;;;;-4.03;75.12;101326.84;4979172;28;20050;-51
2021/03/09 03:47:01;;;;;;;13.18;3.95;;;;;;;-4.08;75.94;101335.53;4978796;28;20051;-48
2021/03/09 03:49:29;;;;;;;6.07;3.50;;;;;;;-4.13;76.20;101330.97;4981984;28;20135;-52
2021/03/09 03:52:21;;;;;;;7.78;4.15;;;;;;;-4.09;76.51;101329.66;4981401;28;20062;-55
2021/03/09 03:55:21;;;;;;;8.20;3.20;;;;;;;-4.01;76.77;101323.75;4982561;28;20042;-48
2021/03/09 03:57:49;;;;;;;9.20;3.65;;;;;;;-4.09;75.95;101332.16;4981357;28;20057;-52
2021/03/09 04:00:19;;;;;;;8.48;3.72;;;;;;;-4.10;75.82;101323.78;4985347;28;20073;-53
2021/03/09 04:02:48;;;;;;;6.85;3.67;;;;;;;-4.03;75.56;101319.34;4983111;28;20054;-53
2021/03/09 04:05:16;;;;;;;8.30;3.65;;;;;;;-3.99;75.13;101308.88;4979669;28;20603;-53
2021/03/09 04:07:45;;;;;;;10.57;4.18;;;;;;;-4.08;75.56;101316.41;4982627;28;20042;-51
2021/03/09 04:10:11;;;;;;;9.15;4.15;;;;;;;-4.11;75.49;101316.13;4983211;28;20420;-50
2021/03/09 04:12:39;;;;;;;9.80;4.10;;;;;;;-3.89;74.30;101293.97;4981790;28;20789;-50
2021/03/09 04:15:07;;;;;;;8.95;3.88;;;;;;;-4.07;75.27;101309.78;4983935;28;20046;-49
2021/03/09 04:17:34;;;;;;;8.35;3.90;;;;;;;-4.12;76.03;101312.72;4982407;28;20077;-50
2021/03/09 04:20:04;;;;;;;12.10;4.13;;;;;;;-3.94;74.40;101302.69;4981790;28;20053;-50
2021/03/09 04:22:32;;;;;;;9.85;3.90;;;;;;;-4.13;75.16;101302.59;4982620;28;20413;-50
2021/03/09 04:25:00;;;;;;;10.13;4.22;;;;;;;-4.14;76.58;101305.84;4981336;28;20046;-50
2021/03/09 04:27:27;;;;;;;9.80;3.92;;;;;;;-4.09;76.01;101312.16;4982606;28;20049;-53
2021/03/09 04:29:56;;;;;;;8.75;4.15;;;;;;;-4.10;75.68;101308.75;4980786;28;20054;-48
2021/03/09 04:32:23;;;;;;;8.05;4.00;;;;;;;-4.16;76.45;101302.28;4982729;28;20049;-53
2021/03/09 04:34:50;;;;;;;10.45;4.65;;;;;;;-4.12;76.53;101309.34;4981929;28;20046;-54
2021/03/09 04:37:35;;;;;;;10.02;3.70;;;;;;;-4.11;75.77;101297.00;4980400;28;20057;-53
2021/03/09 04:40:03;;;;;;;9.55;4.35;;;;;;;-4.11;75.91;101303.63;4981520;28;20055;-53
2021/03/09 04:42:30;;;;;;;6.90;3.40;;;;;;;-4.15;75.75;101299.97;4982225;28;20047;-51
2021/03/09 04:44:57;;;;;;;7.72;4.18;;;;;;;-4.08;76.54;101298.91;4980778;28;20573;-52
2021/03/09 04:47:24;;;;;;;9.90;3.72;;;;;;;-4.02;76.28;101306.06;4981966;28;20054;-49
2021/03/09 04:49:55;;;;;;;8.80;4.25;;;;;;;-4.11;76.30;101306.13;4980221;28;20043;-48
2021/03/09 04:52:24;;;;;;;9.95;4.60;;;;;;;-4.08;75.50;101296.41;4982230;28;20061;-52
2021/03/09 04:54:56;;;;;;;10.07;4.40;;;;;;;-4.11;76.53;101298.63;4979726;28;20058;-53
2021/03/09 04:57:40;;;;;;;10.63;4.32;;;;;;;-3.98;76.19;101304.00;4982148;28;20626;-53
2021/03/09 05:00:15;;;;;;;12.07;4.32;;;;;;;-4.02;75.89;101294.47;4981557;28;20061;-51
2021/03/09 05:02:44;;;;;;;8.85;3.60;;;;;;;-4.07;76.38;101292.28;4980643;28;20520;-48
2021/03/09 05:05:12;;;;;;;9.00;4.15;;;;;;;-3.97;76.41;101300.78;4983686;28;20053;-50
2021/03/09 05:07:39;;;;;;;8.73;4.25;;;;;;;-4.00;77.06;101302.13;4981597;28;20053;-50
2021/03/09 05:10:07;;;;;;;9.00;3.88;;;;;;;-4.00;76.48;101300.50;4981965;28;20070;-50
2021/03/09 05:12:35;;;;;;;10.65;4.38;;;;;;;-4.05;76.60;101298.31;4981662;28;20050;-47
2021/03/09 05:15:03;;;;;;;9.57;4.68;;;;;;;-4.12;77.60;101301.84;4983533;28;20058;-55
2021/03/09 05:17:30;;;;;;;10.35;4.18;;;;;;;-4.16;77.01;101298.19;4983321;28;20101;-47
2021/03/09 05:19:56;;;;;;;7.70;4.35;;;;;;;-4.14;77.53;101290.84;4980849;28;20046;-48
2021/03/09 05:22:23;;;;;;;9.27;4.07;;;;;;;-4.08;77.02;101295.50;4982182;28;20042;-50
2021/03/09 05:24:50;;;;;;;9.30;4.88;;;;;;;-4.13;77.15;101295.09;4980606;28;20591;-48
2021/03/09 05:27:18;;;;;;;12.50;4.20;;;;;;;-3.92;75.28;101286.22;4982021;28;20042;-47
2021/03/09 05:29:44;;;;;;;11.40;4.50;;;;;;;-4.06;76.32;101291.56;4980676;28;20050;-50
2021/03/09 05:32:11;;;;;;;7.63;4.05;;;;;;;-4.10;76.14;101291.25;4982781;28;20053;-50
2021/03/09 05:34:38;;;;;;;9.90;4.47;;;;;;;-4.08;76.04;101296.41;4978739;28;20049;-47
2021/03/09 05:37:08;;;;;;;8.15;4.28;;;;;;;-4.03;75.64;101290.19;4979729;28;20433;-46
2021/03/09 05:39:35;;;;;;;10.20;4.93;;;;;;;-4.00;76.56;101292.13;4982759;28;20043;-50
2021/03/09 05:42:04;;;;;;;9.60;4.13;;;;;;;-3.96;75.67;101300.03;4977075;28;20055;-51
2021/03/09 05:44:36;;;;;;;10.43;4.60;;;;;;;-4.00;75.44;101298.00;4981618;28;20046;-52
2021/03/09 05:47:04;;;;;;;7.70;4.38;;;;;;;-3.91;75.15;101293.84;4979635;28;21582;-48
2021/03/09 05:49:32;;;;;;;8.70;4.18;;;;;;;-3.84;75.94;101297.78;4975879;28;20077;-46
2021/03/09 05:52:00;;;;;;;9.85;4.68;;;;;;;-3.98;75.65;101298.13;4973030;28;20413;-42
2021/03/09 05:54:27;;;;;;;13.68;4.47;;;;;;;-3.89;76.40;101287.34;4977596;28;20057;-46
2021/03/09 05:56:54;;;;;;;12.45;5.25;;;;;;;-3.89;75.95;101298.97;4974969;28;20053;-42
2021/03/09 05:59:22;;;;;;;8.85;3.75;;;;;;;-3.78;75.35;101287.50;4981042;28;20043;-45
2021/03/09 06:01:50;;;;;;;10.95;4.75;;;;;;;-3.87;75.50;101282.50;4978992;28;20053;-46
2021/03/09 06:04:17;;;;;;;10.57;4.75;;;;;;;-3.88;75.70;101286.63;4980787;28;20138;-45
2021/03/09 06:06:44;;;;;;;12.00;4.63;;;;;;;-3.81;74.85;101284.69;4978855;28;20050;-45
2021/03/09 06:09:35;;;;;;;10.63;5.32;;;;;;;-3.77;75.02;101292.63;4981252;28;20042;-47
2021/03/09 06:12:18;;;;;;;9.10;4.47;;;;;;;-3.72;75.00;101288.03;4978992;28;20046;-45
2021/03/09 06:14:59;;;;;;;11.45;5.00;;;;;;;-3.68;74.55;101288.47;4978675;28;20519;-45
2021/03/09 06:17:30;;;;;;;14.55;4.95;;;;;;;-3.69;74.87;101288.31;4981707;28;20076;-44
2021/03/09 06:20:17;;;;;;;10.32;5.15;;;;;;;-3.48;74.30;101292.78;4980731;28;20125;-43
2021/03/09 06:22:55;;;;;;;10.68;4.50;;;;;;;-3.18;73.84;101292.16;4977918;28;20125;-44
2021/03/09 06:25:31;;;;;;;8.90;4.63;;;;;;;-3.32;74.36;101285.03;4979167;28;20053;-43
2021/03/09 06:28:05;;;;;;;13.48;5.30;;;;;;;-3.19;72.43;101292.00;4981362;28;20393;-47
2021/03/09 06:30:33;;;;;;;10.85;4.45;;;;;;;-2.99;73.11;101296.31;4978991;28;20050;-48
2021/03/09 06:33:01;;;;;;;11.73;4.63;;;;;;;-2.93;71.39;101291.84;4979171;28;20061;-44
2021/03/09 06:35:38;;;;;;;8.95;5.03;;;;;;;-2.99;71.87;101292.19;4979461;28;20057;-47
2021/03/09 06:38:19;;;;;;;11.00;5.50;;;;;;;-3.08;71.59;101291.34;4979219;28;20102;-47
2021/03/09 06:41:06;;;;;;;10.45;4.97;;;;;;;-2.98;72.07;101295.56;4979803;28;20043;-43
2021/03/09 06:43:34;;;;;;;13.55;5.13;;;;;;;-2.58;70.11;101290.81;4974405;28;20053;-43
2021/03/09 06:46:12;;;;;;;10.98;5.00;;;;;;;-2.57;69.65;101291.69;4979137;28;20138;-43
2021/03/09 06:48:40;;;;;;;10.40;5.07;;;;;;;-2.44;68.90;101294.53;4979074;28;20841;-43
2021/03/09 06:51:23;;;;;;;12.35;5.57;;;;;;;-2.50;70.42;101291.47;4979835;28;20505;-46
2021/03/09 06:54:07;;;;;;;12.80;5.05;;;;;;;-2.03;67.90;101293.81;4976842;28;20058;-46
2021/03/09 06:56:40;;;;;;;9.82;5.35;;;;;;;-2.19;68.07;101305.03;4974387;28;20066;-47
2021/03/09 06:59:25;;;;;;;10.07;5.03;;;;;;;-1.47;66.29;101303.63;4978776;28;20146;-49
2021/03/09 07:02:13;;;;;;;14.63;5.65;;;;;;;-1.69;66.41;101305.97;4978393;28;20130;-46
2021/03/09 07:04:45;;;;;;;18.50;6.15;;;;;;;-1.77;66.39;101306.06;4977691;28;20042;-44
2021/03/09 07:07:14;;;;;;;13.02;5.03;;;;;;;-1.90;67.27;101304.13;4975572;28;20530;-48
2021/03/09 07:09:53;;;;;;;11.85;5.28;;;;;;;-1.39;64.65;101311.78;4973261;28;20826;-48
2021/03/09 07:12:20;;;;;;;15.95;7.38;;;;;;;-1.07;63.36;101301.88;4977676;28;20057;-48
2021/03/09 07:14:49;;;;;;;16.15;6.05;;;;;;;-1.37;64.52;101303.63;4976105;28;20108;-47
2021/03/09 07:17:19;;;;;;;15.25;5.70;;;;;;;-1.44;64.88;101303.84;4975890;28;20053;-52
2021/03/09 07:19:47;;;;;;;13.15;6.68;;;;;;;-1.15;64.48;101310.44;4976995;28;20164;-51
2021/03/09 07:22:16;;;;;;;16.33;6.85;;;;;;;-0.39;61.59;101310.69;4977001;28;20096;-50
2021/03/09 07:24:50;;;;;;;11.63;6.00;;;;;;;-0.40;60.96;101311.44;4978815;28;20570;-45
2021/03/09 07:27:25;;;;;;;12.93;6.25;;;;;;;-0.18;60.00;101316.56;4981323;28;20523;-47
2021/03/09 07:29:57;;;;;;;11.70;6.45;;;;;;;-0.98;62.48;101310.16;4983127;28;20420;-43
2021/03/09 07:32:28;;;;;;;12.68;6.05;;;;;;;-0.74;62.35;101316.28;4981985;28;20050;-50
2021/03/09 07:34:56;;;;;;;13.52;6.25;;;;;;;-0.98;62.86;101311.78;4980661;28;20150;-48
2021/03/09 07:37:25;;;;;;;15.48;6.90;;;;;;;-0.47;61.00;101312.59;4981373;28;20559;-49
2021/03/09 07:39:52;;;;;;;11.73;6.45;;;;;;;-0.34;60.40;101310.28;4980672;28;20045;-51
2021/03/09 07:42:20;;;;;;;13.80;6.18;;;;;;;-0.64;60.74;101313.78;4982518;28;20053;-49
2021/03/09 07:44:49;;;;;;;16.80;6.45;;;;;;;-0.57;60.75;101312.63;4982910;28;20054;-45
2021/03/09 07:47:20;;;;;;;13.07;5.95;;;;;;;-0.02;58.56;101311.94;4983339;28;20046;-51
2021/03/09 07:49:46;;;;;;;18.65;7.45;;;;;;;0.45;58.18;101313.06;4983381;28;20058;-48
2021/03/09 07:52:16;;;;;;;15.32;6.60;;;;;;;0.17;58.49;101307.56;4982399;28;20093;-48
2021/03/09 07:55:03;;;;;;;15.65;6.05;;;;;;;0.68;56.15;101304.72;4981506;28;20522;-51
2021/03/09 07:57:33;;;;;;;13.73;6.93;;;;;;;0.34;58.04;101302.94;4984061;28;20045;-49
2021/03/09 08:00:01;;;;;;;11.90;6.38;;;;;;;1.02;55.03;101308.13;4979518;28;20072;-49
2021/03/09 08:02:40;;;;;;;17.73;7.55;;;;;;;0.54;58.31;101307.84;4981081;28;20038;-45
2021/03/09 08:05:07;;;;;;;14.35;6.47;;;;;;;1.29;54.72;101303.31;4981919;28;20049;-47
2021/03/09 08:08:04;;;;;;;12.13;6.38;;;;;;;0.69;56.38;101310.63;4982098;28;20105;-44
2021/03/09 08:10:29;;;;;;;;;;;;;;;1.78;53.67;101305.16;4962942;28;20042;-50
2021/03/09 08:13:07;;;;;;;21.40;7.00;;;;;;;2.73;51.41;101293.16;4981477;28;20557;-48
2021/03/09 08:15:35;;;;;;;17.60;7.05;;;;;;;3.15;50.13;101296.75;4981984;28;20404;-51
2021/03/09 08:18:21;;;;;;;14.68;6.35;;;;;;;3.22;48.11;101302.28;4981252;28;20053;-51
2021/03/09 08:20:52;;;;;;;16.23;6.75;;;;;;;2.64;50.95;101295.94;4981548;28;20500;-49
2021/03/09 08:23:31;;;;;;;12.70;6.40;;;;;;;2.14;51.33;101287.44;4982421;28;20199;-46
2021/03/09 08:26:19;;;;;;;13.90;6.03;;;;;;;2.47;51.55;101292.25;4981047;28;20061;-47
2021/03/09 08:28:52;;;;;;;12.88;6.40;;;;;;;2.62;51.75;101296.59;4981003;28;20050;-48
2021/03/09 08:31:19;;;;;;;12.38;6.00;;;;;;;3.46;47.95;101297.91;4982419;28;20077;-49
2021/03/09 08:33:48;;;;;;;13.80;6.35;;;;;;;3.81;47.32;101286.63;4979668;28;20050;-49
2021/03/09 08:36:21;;;;;;;16.73;6.38;;;;;;;2.94;48.84;101288.63;4981648;28;20046;-45
2021/03/09 08:41:35;;;;;;;11.98;6.30;;;;;;;3.84;46.90;101281.75;4981748;28;20046;-47
2021/03/09 08:44:20;;;;;;;16.65;6.85;;;;;;;3.56;47.57;101279.16;4981122;28;20171;-47
2021/03/09 08:47:11;;;;;;;18.45;6.03;;;;;;;3.93;47.06;101274.72;4979868;28;20051;-44
2021/03/09 08:49:40;;;;;;;13.93;6.40;;;;;;;3.77;46.92;101272.88;4978115;28;20128;-50
2021/03/09 08:52:08;;;;;;;19.13;6.00;;;;;;;3.78;45.33;101272.09;4978338;28;20527;-45
2021/03/09 08:54:45;;;;;;;12.23;5.80;;;;;;;2.69;48.52;101270.94;4983159;28;20054;-48
2021/03/09 08:57:24;;;;;;;11.52;5.35;;;;;;;2.35;49.47;101257.69;4984884;28;20050;-48
2021/03/09 08:59:53;;;;;;;16.92;5.53;;;;;;;2.68;49.41;101269.16;4979744;28;20053;-47
2021/03/09 09:02:24;;;;;;;9.30;4.72;;;;;;;2.72;49.90;101258.50;4982291;28;20050;-50
2021/03/09 09:04:59;;;;;;;12.35;4.70;;;;;;;3.08;48.13;101262.56;4980821;28;20057;-44
2021/03/09 09:07:36;;;;;;;11.20;5.32;;;;;;;3.05;48.67;101262.34;4980704;28;20737;-48
2021/03/09 09:10:16;;;;;;;9.15;5.05;;;;;;;3.51;47.37;101258.59;4983297;28;20212;-49
2021/03/09 09:12:44;;;;;;;9.68;5.20;;;;;;;3.21;47.38;101252.44;4980188;28;20147;-46
2021/03/09 09:15:13;;;;;;;11.20;5.38;;;;;;;3.13;48.95;101251.06;4981281;28;20065;-43
2021/03/09 09:17:43;;;;;;;13.77;5.05;;;;;;;4.22;45.99;101262.94;4980522;28;20050;-47
2021/03/09 09:20:20;;;;;;;9.18;4.53;;;;;;;4.23;46.13;101250.34;4980838;28;20046;-49
2021/03/09 09:22:50;;;;;;;9.55;4.80;;;;;;;4.76;44.06;101254.28;4979957;28;20049;-49
2021/03/09 09:25:17;;;;;;;7.85;4.63;;;;;;;4.88;43.86;101249.91;4979493;28;20200;-45
2021/03/09 09:27:44;;;;;;;9.00;4.93;;;;;;;3.92;44.84;101250.13;4980138;28;20053;-49
2021/03/09 09:30:14;;;;;;;9.70;5.30;;;;;;;3.72;46.04;101248.03;4980590;28;20153;-51
2021/03/09 09:32:56;;;;;;;11.00;5.45;;;;;;;4.79;43.99;101250.25;4979681;28;20050;-42
2021/03/09 09:35:26;;;;;;;10.35;4.90;;;;;;;4.27;45.55;101249.75;4980224;28;20116;-44
2021/03/09 09:37:56;;;;;;;8.05;4.50;;;;;;;4.93;43.79;101258.66;4978748;28;20050;-44
2021/03/09 09:40:30;;;;;;;8.68;4.40;;;;;;;5.06;42.31;101257.72;4980378;28;20694;-51
2021/03/09 09:43:00;;;;;;;8.70;4.82;;;;;;;5.73;40.20;101250.41;4979143;28;20074;-47
2021/03/09 09:45:29;;;;;;;12.10;4.22;;;;;;;5.95;40.22;101257.56;4979617;28;20050;-49
2021/03/09 09:47:58;;;;;;;7.63;4.15;;;;;;;6.60;38.86;101244.84;4979531;28;20495;-47
2021/03/09 09:50:29;;;;;;;8.02;4.47;;;;;;;7.40;37.98;101250.50;4980326;28;20704;-49
2021/03/09 09:53:02;;;;;;;8.02;4.25;;;;;;;7.81;36.03;101249.00;4978271;28;20047;-45
2021/03/09 09:55:31;;;;;;;7.93;5.20;;;;;;;7.81;37.49;101250.66;4979714;28;20528;-44
2021/03/09 09:58:00;;;;;;;7.43;3.97;;;;;;;7.66;36.93;101251.69;4978796;28;20047;-46
2021/03/09 10:00:29;;;;;;;10.65;4.63;;;;;;;7.28;38.46;101244.81;4982049;28;20114;-45
2021/03/09 10:03:16;;;;;;;8.82;4.53;;;;;;;7.05;37.40;101245.38;4991094;23;20514;-52
2021/03/09 10:05:44;;;;;;;10.93;4.80;;;;;;;6.35;39.71;101243.59;4961493;28;20043;-48
2021/03/09 10:08:13;;;;;;;6.97;4.45;;;;;;;6.58;39.78;101244.78;4961751;28;20043;-50
2021/03/09 10:10:40;;;;;;;7.78;4.47;;;;;;;6.31;39.86;101238.28;4960273;28;20050;-51
2021/03/09 10:13:21;;;;;;;7.90;4.57;;;;;;;6.26;38.84;101237.16;4960996;28;20047;-49
2021/03/09 10:15:49;;;;;;;7.45;4.72;;;;;;;7.39;36.83;101236.03;4960863;28;20054;-51
2021/03/09 10:18:25;;;;;;;8.48;4.05;;;;;;;6.96;37.24;101230.53;4960581;28;20574;-50
2021/03/09 10:21:09;;;;;;;9.18;3.92;;;;;;;8.44;36.69;101230.53;4963079;28;20081;-50
2021/03/09 10:23:55;;;;;;;5.88;3.85;;;;;;;8.80;35.29;101233.75;4964277;28;20047;-47
2021/03/09 10:26:49;;;;;;;6.75;3.78;;;;;;;7.80;35.46;101224.28;4961063;28;20761;-48
2021/03/09 10:29:21;;;;;;;5.47;3.35;;;;;;;8.76;33.50;101225.09;4958743;28;20053;-50
2021/03/09 10:31:58;;;;;;;6.60;3.80;;;;;;;8.96;33.12;101233.56;4964578;28;20349;-48
2021/03/09 10:34:38;;;;;;;3.70;3.17;;;;;;;11.21;29.08;101234.97;4961719;28;20058;-49
2021/03/09 10:37:16;;;;;;;5.95;3.22;;;;;;;11.99;29.43;101226.25;4965903;28;20055;-50
2021/03/09 10:40:13;;;;;;;6.63;3.17;;;;;;;11.19;30.16;101233.22;4945569;28;20058;-48
2021/03/09 10:42:50;;;;;;;7.30;4.07;;;;;;;11.84;27.87;101230.94;4947537;28;20435;-44
2021/03/09 10:45:40;;;;;;;5.47;2.38;;;;;;;13.35;24.40;101223.75;4972691;28;20030;-39
2021/03/09 10:48:10;;;;;;;2.42;1.67;;;;;;;16.79;19.94;101232.78;4956429;28;20524;-44
2021/03/09 10:50:42;;;;;;;2.15;1.77;;;;;;;17.34;20.02;101237.53;4960455;28;20109;-47
2021/03/09 10:53:09;;;;;;;3.45;2.10;;;;;;;16.60;20.89;101240.34;4970225;28;20050;-43
2021/03/09 10:55:37;;;;;;;4.03;2.25;;;;;;;16.90;19.53;101239.75;4968496;28;20050;-52
2021/03/09 10:58:04;;;;;;;4.63;2.45;;;;;;;17.53;18.43;101238.50;4972144;28;20066;-46
2021/03/09 11:00:31;;;;;;;5.22;2.45;;;;;;;17.51;18.83;101232.44;4971019;28;20463;-47
2021/03/09 11:02:59;;;;;;;3.28;2.33;;;;;;;13.54;22.46;101225.03;4961186;28;20483;-49
2021/03/09 11:05:27;;;;;;;3.88;2.28;;;;;;;14.94;22.06;101230.38;4954981;28;20062;-49
2021/03/09 11:07:54;;;;;;;5.25;2.25;;;;;;;17.71;19.16;101233.44;4971378;28;20081;-49
2021/03/09 11:10:21;;;;;;;3.85;1.90;;;;;;;17.87;17.65;101225.75;4971090;28;20105;-50
2021/03/09 11:12:47;;;;;;;2.35;1.77;;;;;;;18.39;17.32;101234.56;4973950;28;20062;-46
2021/03/09 11:15:14;;;;;;;2.58;2.00;;;;;;;21.22;14.13;101230.19;4960988;28;20057;-49
2021/03/09 11:17:40;;;;;;;2.60;1.83;;;;;;;20.30;15.15;101225.66;4976332;28;20051;-49
2021/03/09 11:20:08;;;;;;;3.97;1.95;;;;;;;19.20;16.62;101219.06;4976852;28;20054;-49
2021/03/09 11:22:35;;;;;;;2.58;2.10;;;;;;;18.15;18.27;101213.75;4983980;28;20050;-45
2021/03/09 11:25:21;;;;;;;2.80;2.47;;;;;;;19.22;17.73;101214.72;4975662;28;20051;-49
2021/03/09 11:27:48;;;;;;;3.70;2.30;;;;;;;20.49;15.29;101218.63;4969725;28;20137;-45
2021/03/09 11:30:16;;;;;;;3.53;2.53;;;;;;;17.86;18.26;101211.06;4939113;28;20138;-47
2021/03/09 11:32:42;;;;;;;4.25;2.42;;;;;;;17.69;17.75;101206.63;4969553;28;20043;-46
2021/03/09 11:35:10;;;;;;;2.78;1.83;;;;;;;19.37;17.48;101207.81;4971235;28;20181;-48
2021/03/09 11:37:36;;;;;;;2.75;2.05;;;;;;;13.91;21.11;101199.25;4966900;28;20053;-49
2021/03/09 11:40:05;;;;;;;3.40;2.38;;;;;;;16.60;19.15;101201.56;4968533;28;20129;-50
2021/03/09 11:42:32;;;;;;;2.47;1.90;;;;;;;15.90;19.38;101193.88;4979485;28;20051;-45
2021/03/09 11:45:05;;;;;;;2.83;2.20;;;;;;;17.99;17.52;101200.75;4987248;28;20278;-44